createdAt,value
2019-05-03T00:02:27.450Z,90.60
2019-05-03T00:07:31.783Z,90.70
2019-05-03T00:12:35.496Z,91.00
2019-05-03T00:17:38.955Z,91.00
2019-05-03T00:22:45.325Z,90.90
2019-05-03T00:27:52.436Z,90.90
2019-05-03T00:32:57.527Z,90.90
2019-05-03T00:38:05.303Z,91.00
2019-05-03T00:43:11.600Z,91.00
2019-05-03T00:48:15.311Z,90.90
2019-05-03T00:53:18.684Z,90.70
2019-05-03T00:58:22.527Z,90.50
2019-05-03T01:03:26.058Z,90.30
2019-05-03T01:08:29.958Z,89.70
2019-05-03T01:13:34.100Z,89.50
2019-05-03T01:18:38.738Z,89.60
2019-05-03T01:23:42.817Z,89.30
2019-05-03T01:28:46.600Z,87.00
2019-05-03T01:33:51.562Z,89.80
2019-05-03T01:38:56.294Z,90.10
2019-05-03T01:44:01.820Z,90.10
2019-05-03T01:49:19.100Z,90.20
2019-05-03T01:54:22.916Z,89.70
2019-05-03T01:59:27.483Z,90.40
2019-05-03T02:04:53.396Z,90.50
2019-05-03T02:09:57.447Z,90.50
2019-05-03T02:15:02.478Z,90.40
2019-05-03T02:20:06.931Z,90.20
2019-05-03T02:25:12.542Z,90.00
2019-05-03T02:30:16.174Z,89.40
2019-05-03T02:35:22.632Z,89.00
2019-05-03T02:40:26.356Z,88.00
2019-05-03T02:45:30.675Z,87.40
2019-05-03T02:50:36.063Z,88.40
2019-05-03T02:55:39.950Z,88.30
2019-05-03T03:00:59.784Z,87.90
2019-05-03T03:06:06.706Z,87.70
2019-05-03T03:11:09.858Z,87.50
2019-05-03T03:16:16.300Z,87.80
2019-05-03T03:21:26.073Z,87.70
2019-05-03T03:26:37.210Z,88.10
2019-05-03T03:32:28.376Z,88.30
2019-05-03T03:37:29.713Z,88.30
2019-05-03T03:42:36.025Z,88.50
2019-05-03T03:47:39.716Z,88.30
2019-05-03T03:52:45.366Z,88.70
2019-05-03T03:57:49.220Z,89.10
2019-05-03T04:02:55.279Z,89.90
2019-05-03T04:07:59.604Z,90.30
2019-05-03T04:13:05.785Z,90.20
2019-05-03T04:18:32.893Z,89.70
2019-05-03T04:23:37.045Z,90.30
2019-05-03T04:28:41.623Z,90.30
2019-05-03T04:33:45.229Z,90.20
2019-05-03T04:38:49.178Z,88.60
2019-05-03T04:43:55.246Z,88.30
2019-05-03T04:48:58.653Z,89.70
2019-05-03T04:54:20.390Z,89.80
2019-05-03T04:59:25.454Z,87.00
2019-05-03T05:04:31.396Z,89.80
2019-05-03T05:09:37.025Z,89.30
2019-05-03T05:14:41.895Z,88.60
2019-05-03T05:20:10.732Z,87.80
2019-05-03T05:25:17.404Z,85.10
2019-05-03T05:30:21.856Z,84.90
2019-05-03T05:35:25.907Z,85.40
2019-05-03T05:40:30.456Z,86.00
2019-05-03T05:45:35.031Z,86.60
2019-05-03T05:50:41.254Z,87.60
2019-05-03T05:56:06.893Z,88.80
2019-05-03T06:01:21.471Z,86.90
2019-05-03T06:06:32.521Z,90.00
2019-05-03T06:16:56.453Z,87.10
2019-05-03T06:22:11.012Z,85.50
2019-05-03T06:32:34.673Z,79.50
2019-05-03T06:37:43.332Z,75.90
2019-05-03T06:42:54.456Z,72.60
2019-05-03T06:58:05.092Z,74.30
2019-05-03T07:03:30.723Z,75.00
2019-05-03T07:14:00.023Z,76.70
2019-05-03T07:24:08.170Z,76.00
2019-05-03T07:29:12.502Z,76.20
2019-05-03T07:34:15.984Z,75.30
2019-05-03T07:39:20.256Z,73.90
2019-05-03T07:44:25.458Z,72.10
2019-05-03T07:54:35.494Z,71.50
2019-05-03T07:59:39.439Z,72.40
2019-05-03T08:14:54.991Z,73.70
2019-05-03T08:25:05.328Z,75.30
2019-05-03T08:40:47.216Z,74.20
2019-05-03T08:56:01.437Z,67.40
2019-05-03T09:06:09.597Z,66.50
2019-05-03T09:11:15.545Z,67.10
2019-05-03T09:21:25.500Z,61.80
2019-05-03T09:56:59.558Z,57.00
2019-05-03T10:02:04.951Z,55.10
2019-05-03T10:07:09.247Z,54.60
2019-05-03T10:17:50.908Z,50.20
2019-05-03T10:28:03.142Z,44.50
2019-05-03T10:33:15.546Z,46.80
2019-05-03T10:48:30.218Z,43.60
2019-05-03T11:13:58.033Z,34.90
2019-05-03T11:19:01.962Z,34.80
2019-05-03T11:29:10.015Z,33.10
2019-05-03T11:34:15.646Z,34.60
2019-05-03T11:44:39.721Z,34.70
2019-05-03T11:49:45.196Z,34.30
2019-05-03T12:15:10.639Z,32.70
2019-05-03T12:40:35.217Z,30.90
2019-05-03T12:45:39.885Z,30.50
2019-05-03T12:55:49.643Z,32.80
2019-05-03T13:01:05.537Z,31.90
2019-05-03T13:06:09.181Z,32.00
2019-05-03T13:11:12.590Z,31.90
2019-05-03T13:21:23.324Z,32.10
2019-05-03T13:26:29.383Z,32.50
2019-05-03T13:31:34.548Z,32.30
2019-05-03T13:51:50.593Z,30.30
2019-05-03T13:56:55.753Z,29.40
2019-05-03T14:02:11.513Z,30.10
2019-05-03T14:12:09.827Z,30.10
2019-05-03T14:22:19.392Z,30.10
2019-05-03T14:27:25.425Z,31.00
2019-05-03T14:32:29.724Z,29.90
2019-05-03T14:42:38.435Z,23.70
2019-05-03T14:47:42.219Z,19.60
2019-05-03T14:58:07.686Z,18.60
2019-05-03T15:03:15.084Z,20.90
2019-05-03T15:13:25.113Z,17.90
2019-05-03T15:23:34.671Z,17.90
2019-05-03T15:28:38.917Z,16.90
2019-05-03T16:04:20.742Z,20.70
2019-05-03T16:14:28.562Z,22.70
2019-05-03T16:19:32.012Z,22.80
2019-05-03T16:24:35.987Z,26.10
2019-05-03T16:34:44.591Z,28.10
2019-05-03T16:49:56.678Z,22.90
2019-05-03T16:55:00.473Z,24.20
2019-05-03T17:00:05.682Z,25.60
2019-05-03T17:05:25.931Z,26.50
2019-05-03T17:10:36.577Z,28.00
2019-05-03T17:15:40.738Z,29.70
2019-05-03T17:25:49.207Z,32.00
2019-05-03T17:30:55.189Z,32.90
2019-05-03T17:41:21.584Z,34.00
2019-05-03T18:02:23.241Z,36.70
2019-05-03T18:13:08.281Z,37.90
2019-05-03T18:28:20.672Z,38.90
2019-05-03T18:33:24.703Z,39.30
2019-05-03T19:04:07.226Z,41.70
2019-05-03T19:19:39.050Z,41.70
2019-05-03T19:24:44.487Z,41.50
2019-05-03T19:55:08.635Z,42.60
2019-05-03T20:00:12.657Z,42.70
2019-05-03T20:05:41.672Z,42.30
2019-05-03T20:20:55.192Z,45.30
2019-05-03T20:25:59.053Z,46.10
2019-05-03T20:56:34.268Z,46.70
2019-05-03T21:17:00.802Z,47.30
2019-05-03T21:22:11.393Z,47.50
2019-05-03T21:27:15.531Z,47.70
2019-05-03T21:32:19.169Z,47.80
2019-05-03T22:08:00.299Z,49.90
2019-05-03T22:33:55.157Z,51.40
2019-05-03T22:38:59.490Z,52.30
2019-05-03T22:44:02.829Z,52.20
2019-05-03T22:54:15.337Z,52.00
2019-05-03T22:59:19.102Z,52.60
2019-05-03T23:04:25.274Z,51.90
2019-05-03T23:09:29.102Z,52.20
2019-05-03T23:14:34.585Z,52.50
2019-05-03T23:19:40.861Z,53.40
2019-05-03T23:24:44.444Z,53.50
2019-05-03T23:29:48.015Z,54.40
2019-05-03T23:34:51.400Z,55.20
2019-05-03T23:39:55.223Z,55.40
2019-05-03T23:50:08.205Z,56.20
2019-05-03T23:55:39.350Z,57.00
